sensor_id;sensor_type;location;lat;lon;timestamp;P1;durP1;ratioP1;P2;durP2;ratioP2
8978;SDS011;4524;51.364;5.448;2023-03-03T00:01:28;34.90;;;19.60;;
8978;SDS011;4524;51.364;5.448;2023-03-03T00:03:58;32.30;;;19.30;;
8978;SDS011;4524;51.364;5.448;2023-03-03T00:06:26;32.57;;;19.53;;
8978;SDS011;4524;51.364;5.448;2023-03-03T00:08:57;37.07;;;21.20;;
8978;SDS011;4524;51.364;5.448;2023-03-03T00:11:24;38.53;;;20.43;;
8978;SDS011;4524;51.364;5.448;2023-03-03T00:13:53;34.43;;;19.63;;
8978;SDS011;4524;51.364;5.448;2023-03-03T00:16:24;33.93;;;20.27;;
8978;SDS011;4524;51.364;5.448;2023-03-03T00:18:54;33.00;;;19.40;;
8978;SDS011;4524;51.364;5.448;2023-03-03T00:21:26;34.53;;;20.73;;
8978;SDS011;4524;51.364;5.448;2023-03-03T00:24:18;32.93;;;19.40;;
8978;SDS011;4524;51.364;5.448;2023-03-03T00:26:47;35.70;;;20.23;;
8978;SDS011;4524;51.364;5.448;2023-03-03T00:29:23;36.80;;;20.63;;
8978;SDS011;4524;51.364;5.448;2023-03-03T00:31:58;37.17;;;20.40;;
8978;SDS011;4524;51.364;5.448;2023-03-03T00:34:46;35.27;;;20.57;;
8978;SDS011;4524;51.364;5.448;2023-03-03T00:37:19;34.60;;;19.23;;
8978;SDS011;4524;51.364;5.448;2023-03-03T00:39:53;37.07;;;21.43;;
8978;SDS011;4524;51.364;5.448;2023-03-03T00:42:28;33.70;;;19.40;;
8978;SDS011;4524;51.364;5.448;2023-03-03T00:44:56;34.40;;;20.93;;
8978;SDS011;4524;51.364;5.448;2023-03-03T00:47:26;36.00;;;20.60;;
8978;SDS011;4524;51.364;5.448;2023-03-03T00:50:16;36.87;;;21.37;;
8978;SDS011;4524;51.364;5.448;2023-03-03T00:52:53;40.17;;;22.57;;
8978;SDS011;4524;51.364;5.448;2023-03-03T00:55:30;38.87;;;22.17;;
8978;SDS011;4524;51.364;5.448;2023-03-03T00:57:59;40.10;;;22.37;;
8978;SDS011;4524;51.364;5.448;2023-03-03T01:00:32;40.27;;;23.03;;
8978;SDS011;4524;51.364;5.448;2023-03-03T01:03:03;32.53;;;19.53;;
8978;SDS011;4524;51.364;5.448;2023-03-03T01:05:33;39.70;;;22.10;;
8978;SDS011;4524;51.364;5.448;2023-03-03T01:08:03;38.67;;;21.90;;
8978;SDS011;4524;51.364;5.448;2023-03-03T01:10:33;41.83;;;23.20;;
8978;SDS011;4524;51.364;5.448;2023-03-03T01:13:05;39.00;;;21.67;;
8978;SDS011;4524;51.364;5.448;2023-03-03T01:15:34;39.80;;;22.10;;
8978;SDS011;4524;51.364;5.448;2023-03-03T01:18:03;40.97;;;22.10;;
8978;SDS011;4524;51.364;5.448;2023-03-03T01:20:30;38.37;;;21.17;;
8978;SDS011;4524;51.364;5.448;2023-03-03T01:22:58;37.23;;;21.83;;
8978;SDS011;4524;51.364;5.448;2023-03-03T01:25:26;45.27;;;21.67;;
8978;SDS011;4524;51.364;5.448;2023-03-03T01:27:56;38.03;;;21.83;;
8978;SDS011;4524;51.364;5.448;2023-03-03T01:30:24;40.73;;;21.43;;
8978;SDS011;4524;51.364;5.448;2023-03-03T01:32:52;38.80;;;22.30;;
8978;SDS011;4524;51.364;5.448;2023-03-03T01:35:21;41.87;;;22.50;;
8978;SDS011;4524;51.364;5.448;2023-03-03T01:37:49;41.10;;;23.17;;
8978;SDS011;4524;51.364;5.448;2023-03-03T01:40:19;40.57;;;22.87;;
8978;SDS011;4524;51.364;5.448;2023-03-03T01:42:48;38.10;;;21.97;;
8978;SDS011;4524;51.364;5.448;2023-03-03T01:45:20;38.23;;;21.43;;
8978;SDS011;4524;51.364;5.448;2023-03-03T01:47:51;36.37;;;20.37;;
8978;SDS011;4524;51.364;5.448;2023-03-03T01:50:31;33.97;;;20.30;;
8978;SDS011;4524;51.364;5.448;2023-03-03T01:53:05;36.50;;;20.50;;
8978;SDS011;4524;51.364;5.448;2023-03-03T01:55:40;36.83;;;20.23;;
8978;SDS011;4524;51.364;5.448;2023-03-03T01:58:10;39.03;;;21.27;;
8978;SDS011;4524;51.364;5.448;2023-03-03T02:00:43;38.60;;;21.40;;
8978;SDS011;4524;51.364;5.448;2023-03-03T02:03:17;38.00;;;19.97;;
8978;SDS011;4524;51.364;5.448;2023-03-03T02:05:48;37.57;;;20.30;;
8978;SDS011;4524;51.364;5.448;2023-03-03T02:08:19;38.30;;;21.10;;
8978;SDS011;4524;51.364;5.448;2023-03-03T02:10:52;38.70;;;20.83;;
8978;SDS011;4524;51.364;5.448;2023-03-03T02:13:23;38.03;;;21.47;;
8978;SDS011;4524;51.364;5.448;2023-03-03T02:15:54;34.23;;;19.20;;
8978;SDS011;4524;51.364;5.448;2023-03-03T02:18:24;35.27;;;19.47;;
8978;SDS011;4524;51.364;5.448;2023-03-03T02:20:53;31.93;;;18.53;;
8978;SDS011;4524;51.364;5.448;2023-03-03T02:23:28;33.53;;;18.37;;
8978;SDS011;4524;51.364;5.448;2023-03-03T02:26:06;33.03;;;18.53;;
8978;SDS011;4524;51.364;5.448;2023-03-03T02:28:36;32.13;;;19.40;;
8978;SDS011;4524;51.364;5.448;2023-03-03T02:31:08;32.67;;;18.77;;
8978;SDS011;4524;51.364;5.448;2023-03-03T02:33:40;30.93;;;18.10;;
8978;SDS011;4524;51.364;5.448;2023-03-03T02:36:12;32.73;;;17.50;;
8978;SDS011;4524;51.364;5.448;2023-03-03T02:38:42;35.80;;;19.97;;
8978;SDS011;4524;51.364;5.448;2023-03-03T02:41:17;30.90;;;17.10;;
8978;SDS011;4524;51.364;5.448;2023-03-03T02:43:56;32.60;;;18.30;;
8978;SDS011;4524;51.364;5.448;2023-03-03T02:46:28;35.23;;;19.80;;
8978;SDS011;4524;51.364;5.448;2023-03-03T02:49:00;32.57;;;18.67;;
8978;SDS011;4524;51.364;5.448;2023-03-03T02:51:28;36.87;;;19.80;;
8978;SDS011;4524;51.364;5.448;2023-03-03T02:53:56;36.37;;;19.93;;
8978;SDS011;4524;51.364;5.448;2023-03-03T02:56:28;33.27;;;17.10;;
8978;SDS011;4524;51.364;5.448;2023-03-03T02:58:56;40.40;;;20.23;;
8978;SDS011;4524;51.364;5.448;2023-03-03T03:01:26;31.70;;;17.10;;
8978;SDS011;4524;51.364;5.448;2023-03-03T03:03:55;35.30;;;19.47;;
8978;SDS011;4524;51.364;5.448;2023-03-03T03:06:23;40.73;;;20.53;;
8978;SDS011;4524;51.364;5.448;2023-03-03T03:08:51;36.77;;;19.47;;
8978;SDS011;4524;51.364;5.448;2023-03-03T03:11:20;33.47;;;19.47;;
8978;SDS011;4524;51.364;5.448;2023-03-03T03:13:49;33.73;;;20.03;;
8978;SDS011;4524;51.364;5.448;2023-03-03T03:16:18;39.20;;;20.50;;
8978;SDS011;4524;51.364;5.448;2023-03-03T03:18:46;35.73;;;19.67;;
8978;SDS011;4524;51.364;5.448;2023-03-03T03:21:15;38.87;;;19.53;;
8978;SDS011;4524;51.364;5.448;2023-03-03T03:23:44;35.93;;;18.83;;
8978;SDS011;4524;51.364;5.448;2023-03-03T03:26:12;36.50;;;19.43;;
8978;SDS011;4524;51.364;5.448;2023-03-03T03:28:41;35.47;;;20.00;;
8978;SDS011;4524;51.364;5.448;2023-03-03T03:31:10;36.77;;;18.73;;
8978;SDS011;4524;51.364;5.448;2023-03-03T03:33:38;37.07;;;19.27;;
8978;SDS011;4524;51.364;5.448;2023-03-03T03:36:07;39.33;;;20.40;;
8978;SDS011;4524;51.364;5.448;2023-03-03T03:38:35;33.20;;;18.77;;
8978;SDS011;4524;51.364;5.448;2023-03-03T03:41:06;33.43;;;18.37;;
8978;SDS011;4524;51.364;5.448;2023-03-03T03:43:34;36.60;;;19.83;;
8978;SDS011;4524;51.364;5.448;2023-03-03T03:46:02;37.20;;;19.80;;
8978;SDS011;4524;51.364;5.448;2023-03-03T03:48:33;34.33;;;18.67;;
8978;SDS011;4524;51.364;5.448;2023-03-03T03:51:03;37.03;;;19.00;;
8978;SDS011;4524;51.364;5.448;2023-03-03T03:53:33;38.93;;;20.20;;
8978;SDS011;4524;51.364;5.448;2023-03-03T03:56:01;37.13;;;19.97;;
8978;SDS011;4524;51.364;5.448;2023-03-03T03:58:29;34.00;;;18.17;;
8978;SDS011;4524;51.364;5.448;2023-03-03T04:01:02;37.67;;;19.77;;
8978;SDS011;4524;51.364;5.448;2023-03-03T04:03:34;36.03;;;19.70;;
8978;SDS011;4524;51.364;5.448;2023-03-03T04:06:06;37.57;;;19.20;;
8978;SDS011;4524;51.364;5.448;2023-03-03T04:08:34;39.40;;;19.93;;
8978;SDS011;4524;51.364;5.448;2023-03-03T04:11:02;42.03;;;25.20;;
8978;SDS011;4524;51.364;5.448;2023-03-03T04:13:31;39.80;;;21.90;;
8978;SDS011;4524;51.364;5.448;2023-03-03T04:16:03;33.47;;;19.17;;
8978;SDS011;4524;51.364;5.448;2023-03-03T04:18:32;34.77;;;18.87;;
8978;SDS011;4524;51.364;5.448;2023-03-03T04:21:02;37.30;;;18.90;;
8978;SDS011;4524;51.364;5.448;2023-03-03T04:23:31;32.40;;;18.37;;
8978;SDS011;4524;51.364;5.448;2023-03-03T04:26:00;37.43;;;18.57;;
8978;SDS011;4524;51.364;5.448;2023-03-03T04:28:29;42.30;;;20.43;;
8978;SDS011;4524;51.364;5.448;2023-03-03T04:30:57;41.53;;;19.60;;
8978;SDS011;4524;51.364;5.448;2023-03-03T04:33:27;36.50;;;19.50;;
8978;SDS011;4524;51.364;5.448;2023-03-03T04:35:55;35.30;;;18.70;;
8978;SDS011;4524;51.364;5.448;2023-03-03T04:38:24;36.30;;;18.37;;
8978;SDS011;4524;51.364;5.448;2023-03-03T04:40:54;35.10;;;19.23;;
8978;SDS011;4524;51.364;5.448;2023-03-03T04:43:25;42.00;;;23.63;;
8978;SDS011;4524;51.364;5.448;2023-03-03T04:45:54;40.53;;;25.20;;
8978;SDS011;4524;51.364;5.448;2023-03-03T04:48:22;43.05;;;26.30;;
8978;SDS011;4524;51.364;5.448;2023-03-03T04:50:50;40.83;;;25.88;;
8978;SDS011;4524;51.364;5.448;2023-03-03T04:53:19;43.67;;;25.20;;
8978;SDS011;4524;51.364;5.448;2023-03-03T04:55:49;43.90;;;26.73;;
8978;SDS011;4524;51.364;5.448;2023-03-03T04:58:19;44.75;;;27.90;;
8978;SDS011;4524;51.364;5.448;2023-03-03T05:00:52;41.58;;;26.15;;
8978;SDS011;4524;51.364;5.448;2023-03-03T05:03:22;43.45;;;26.75;;
8978;SDS011;4524;51.364;5.448;2023-03-03T05:05:52;39.05;;;25.05;;
8978;SDS011;4524;51.364;5.448;2023-03-03T05:08:20;41.15;;;25.63;;
8978;SDS011;4524;51.364;5.448;2023-03-03T05:10:51;39.33;;;24.33;;
8978;SDS011;4524;51.364;5.448;2023-03-03T05:13:20;40.60;;;25.95;;
8978;SDS011;4524;51.364;5.448;2023-03-03T05:15:48;37.95;;;24.27;;
8978;SDS011;4524;51.364;5.448;2023-03-03T05:18:17;38.17;;;24.30;;
8978;SDS011;4524;51.364;5.448;2023-03-03T05:20:46;37.85;;;23.80;;
8978;SDS011;4524;51.364;5.448;2023-03-03T05:23:14;37.40;;;24.43;;
8978;SDS011;4524;51.364;5.448;2023-03-03T05:25:42;38.10;;;24.17;;
8978;SDS011;4524;51.364;5.448;2023-03-03T05:28:12;38.08;;;23.27;;
8978;SDS011;4524;51.364;5.448;2023-03-03T05:30:40;37.05;;;23.80;;
8978;SDS011;4524;51.364;5.448;2023-03-03T05:33:08;37.50;;;24.75;;
8978;SDS011;4524;51.364;5.448;2023-03-03T05:35:38;36.47;;;24.60;;
8978;SDS011;4524;51.364;5.448;2023-03-03T05:38:06;38.40;;;25.00;;
8978;SDS011;4524;51.364;5.448;2023-03-03T05:40:34;38.95;;;25.05;;
8978;SDS011;4524;51.364;5.448;2023-03-03T05:43:03;38.97;;;24.17;;
8978;SDS011;4524;51.364;5.448;2023-03-03T05:45:33;35.53;;;24.00;;
8978;SDS011;4524;51.364;5.448;2023-03-03T05:48:01;36.72;;;24.45;;
8978;SDS011;4524;51.364;5.448;2023-03-03T05:50:30;33.78;;;22.73;;
8978;SDS011;4524;51.364;5.448;2023-03-03T05:52:58;39.07;;;25.30;;
8978;SDS011;4524;51.364;5.448;2023-03-03T05:55:26;36.30;;;23.33;;
8978;SDS011;4524;51.364;5.448;2023-03-03T05:57:54;38.90;;;25.38;;
8978;SDS011;4524;51.364;5.448;2023-03-03T06:00:22;36.20;;;23.50;;
8978;SDS011;4524;51.364;5.448;2023-03-03T06:02:52;37.20;;;23.75;;
8978;SDS011;4524;51.364;5.448;2023-03-03T06:05:20;35.72;;;23.02;;
8978;SDS011;4524;51.364;5.448;2023-03-03T06:07:48;33.53;;;21.55;;
8978;SDS011;4524;51.364;5.448;2023-03-03T06:10:16;36.13;;;22.85;;
8978;SDS011;4524;51.364;5.448;2023-03-03T06:12:48;37.22;;;23.90;;
8978;SDS011;4524;51.364;5.448;2023-03-03T06:15:16;35.28;;;22.15;;
8978;SDS011;4524;51.364;5.448;2023-03-03T06:17:44;38.03;;;22.33;;
8978;SDS011;4524;51.364;5.448;2023-03-03T06:20:13;35.95;;;22.65;;
8978;SDS011;4524;51.364;5.448;2023-03-03T06:22:41;33.13;;;21.48;;
8978;SDS011;4524;51.364;5.448;2023-03-03T06:25:09;34.20;;;21.08;;
8978;SDS011;4524;51.364;5.448;2023-03-03T06:27:37;35.38;;;21.90;;
8978;SDS011;4524;51.364;5.448;2023-03-03T06:30:05;34.47;;;21.63;;
8978;SDS011;4524;51.364;5.448;2023-03-03T06:32:34;33.55;;;21.85;;
8978;SDS011;4524;51.364;5.448;2023-03-03T06:35:02;34.43;;;22.10;;
8978;SDS011;4524;51.364;5.448;2023-03-03T06:37:32;35.20;;;22.50;;
8978;SDS011;4524;51.364;5.448;2023-03-03T06:40:00;34.95;;;22.60;;
8978;SDS011;4524;51.364;5.448;2023-03-03T06:42:28;34.95;;;22.45;;
8978;SDS011;4524;51.364;5.448;2023-03-03T06:44:56;31.60;;;21.15;;
8978;SDS011;4524;51.364;5.448;2023-03-03T06:47:24;34.30;;;22.20;;
8978;SDS011;4524;51.364;5.448;2023-03-03T06:49:52;36.35;;;22.58;;
8978;SDS011;4524;51.364;5.448;2023-03-03T06:52:22;32.53;;;21.25;;
8978;SDS011;4524;51.364;5.448;2023-03-03T06:54:53;32.78;;;21.80;;
8978;SDS011;4524;51.364;5.448;2023-03-03T06:57:24;35.15;;;22.55;;
8978;SDS011;4524;51.364;5.448;2023-03-03T06:59:54;33.93;;;22.53;;
8978;SDS011;4524;51.364;5.448;2023-03-03T07:02:25;35.00;;;21.50;;
8978;SDS011;4524;51.364;5.448;2023-03-03T07:04:54;31.00;;;20.58;;
8978;SDS011;4524;51.364;5.448;2023-03-03T07:07:23;32.70;;;21.15;;
8978;SDS011;4524;51.364;5.448;2023-03-03T07:09:54;31.70;;;20.33;;
8978;SDS011;4524;51.364;5.448;2023-03-03T07:12:24;30.88;;;20.45;;
8978;SDS011;4524;51.364;5.448;2023-03-03T07:14:57;31.92;;;20.95;;
8978;SDS011;4524;51.364;5.448;2023-03-03T07:17:36;31.15;;;20.50;;
8978;SDS011;4524;51.364;5.448;2023-03-03T07:20:10;28.83;;;19.73;;
8978;SDS011;4524;51.364;5.448;2023-03-03T07:22:45;29.88;;;20.85;;
8978;SDS011;4524;51.364;5.448;2023-03-03T07:25:19;30.58;;;21.05;;
8978;SDS011;4524;51.364;5.448;2023-03-03T07:27:52;30.58;;;20.58;;
8978;SDS011;4524;51.364;5.448;2023-03-03T07:30:25;34.28;;;22.08;;
8978;SDS011;4524;51.364;5.448;2023-03-03T07:32:55;33.05;;;21.17;;
8978;SDS011;4524;51.364;5.448;2023-03-03T07:38:11;32.75;;;21.00;;
8978;SDS011;4524;51.364;5.448;2023-03-03T07:40:49;31.67;;;21.27;;
8978;SDS011;4524;51.364;5.448;2023-03-03T07:43:26;32.30;;;21.23;;
8978;SDS011;4524;51.364;5.448;2023-03-03T07:45:59;30.10;;;21.08;;
8978;SDS011;4524;51.364;5.448;2023-03-03T07:48:40;33.90;;;21.33;;
8978;SDS011;4524;51.364;5.448;2023-03-03T07:51:11;31.88;;;21.20;;
8978;SDS011;4524;51.364;5.448;2023-03-03T07:53:42;29.42;;;20.15;;
8978;SDS011;4524;51.364;5.448;2023-03-03T07:56:19;31.80;;;20.90;;
8978;SDS011;4524;51.364;5.448;2023-03-03T07:58:54;31.23;;;21.50;;
8978;SDS011;4524;51.364;5.448;2023-03-03T08:01:27;33.70;;;21.88;;
8978;SDS011;4524;51.364;5.448;2023-03-03T08:04:01;30.53;;;20.93;;
8978;SDS011;4524;51.364;5.448;2023-03-03T08:06:51;30.83;;;20.23;;
8978;SDS011;4524;51.364;5.448;2023-03-03T08:09:37;28.70;;;18.60;;
8978;SDS011;4524;51.364;5.448;2023-03-03T08:15:11;28.63;;;18.73;;
8978;SDS011;4524;51.364;5.448;2023-03-03T08:17:46;29.58;;;19.20;;
8978;SDS011;4524;51.364;5.448;2023-03-03T08:20:36;29.02;;;19.13;;
8978;SDS011;4524;51.364;5.448;2023-03-03T08:23:09;29.25;;;19.38;;
8978;SDS011;4524;51.364;5.448;2023-03-03T08:25:38;29.92;;;19.45;;
8978;SDS011;4524;51.364;5.448;2023-03-03T08:28:09;28.60;;;19.17;;
8978;SDS011;4524;51.364;5.448;2023-03-03T08:30:37;29.48;;;19.67;;
8978;SDS011;4524;51.364;5.448;2023-03-03T08:33:06;28.48;;;19.35;;
8978;SDS011;4524;51.364;5.448;2023-03-03T08:35:34;27.07;;;19.17;;
8978;SDS011;4524;51.364;5.448;2023-03-03T08:38:02;28.63;;;19.60;;
8978;SDS011;4524;51.364;5.448;2023-03-03T08:40:31;28.15;;;19.42;;
8978;SDS011;4524;51.364;5.448;2023-03-03T08:43:00;29.92;;;20.10;;
8978;SDS011;4524;51.364;5.448;2023-03-03T08:45:29;29.70;;;19.33;;
8978;SDS011;4524;51.364;5.448;2023-03-03T08:47:57;29.98;;;19.48;;
8978;SDS011;4524;51.364;5.448;2023-03-03T08:50:26;30.05;;;19.83;;
8978;SDS011;4524;51.364;5.448;2023-03-03T08:52:55;28.10;;;19.05;;
8978;SDS011;4524;51.364;5.448;2023-03-03T08:55:23;28.60;;;19.45;;
8978;SDS011;4524;51.364;5.448;2023-03-03T08:57:51;27.20;;;19.13;;
8978;SDS011;4524;51.364;5.448;2023-03-03T09:00:19;27.00;;;18.58;;
8978;SDS011;4524;51.364;5.448;2023-03-03T09:02:49;25.90;;;18.58;;
8978;SDS011;4524;51.364;5.448;2023-03-03T09:05:18;27.45;;;18.67;;
8978;SDS011;4524;51.364;5.448;2023-03-03T09:07:46;28.70;;;19.48;;
8978;SDS011;4524;51.364;5.448;2023-03-03T09:10:17;27.27;;;19.17;;
8978;SDS011;4524;51.364;5.448;2023-03-03T09:12:48;28.05;;;18.23;;
8978;SDS011;4524;51.364;5.448;2023-03-03T09:15:18;28.83;;;19.10;;
8978;SDS011;4524;51.364;5.448;2023-03-03T09:17:50;26.67;;;19.02;;
8978;SDS011;4524;51.364;5.448;2023-03-03T09:28:58;27.80;;;19.42;;
8978;SDS011;4524;51.364;5.448;2023-03-03T09:31:35;27.75;;;18.92;;
8978;SDS011;4524;51.364;5.448;2023-03-03T09:34:12;28.00;;;19.35;;
8978;SDS011;4524;51.364;5.448;2023-03-03T09:36:45;25.48;;;18.30;;
8978;SDS011;4524;51.364;5.448;2023-03-03T09:39:16;26.05;;;18.25;;
8978;SDS011;4524;51.364;5.448;2023-03-03T09:41:52;26.92;;;19.27;;
8978;SDS011;4524;51.364;5.448;2023-03-03T09:44:50;26.17;;;19.13;;
8978;SDS011;4524;51.364;5.448;2023-03-03T09:47:40;27.80;;;19.33;;
8978;SDS011;4524;51.364;5.448;2023-03-03T09:50:21;28.98;;;20.52;;
8978;SDS011;4524;51.364;5.448;2023-03-03T09:53:00;28.05;;;19.02;;
8978;SDS011;4524;51.364;5.448;2023-03-03T09:55:43;28.08;;;19.83;;
8978;SDS011;4524;51.364;5.448;2023-03-03T09:58:21;27.20;;;19.13;;
8978;SDS011;4524;51.364;5.448;2023-03-03T10:01:01;30.27;;;20.23;;
8978;SDS011;4524;51.364;5.448;2023-03-03T10:03:48;28.25;;;18.75;;
8978;SDS011;4524;51.364;5.448;2023-03-03T10:06:36;28.30;;;19.75;;
8978;SDS011;4524;51.364;5.448;2023-03-03T10:09:11;27.67;;;18.85;;
8978;SDS011;4524;51.364;5.448;2023-03-03T10:12:03;25.73;;;18.15;;
8978;SDS011;4524;51.364;5.448;2023-03-03T10:14:40;29.08;;;18.73;;
8978;SDS011;4524;51.364;5.448;2023-03-03T10:17:29;25.92;;;17.65;;
8978;SDS011;4524;51.364;5.448;2023-03-03T10:20:18;24.15;;;16.65;;
8978;SDS011;4524;51.364;5.448;2023-03-03T10:22:59;22.92;;;15.77;;
8978;SDS011;4524;51.364;5.448;2023-03-03T10:25:37;22.02;;;15.60;;
8978;SDS011;4524;51.364;5.448;2023-03-03T10:28:17;21.30;;;15.63;;
8978;SDS011;4524;51.364;5.448;2023-03-03T10:30:59;25.50;;;18.17;;
8978;SDS011;4524;51.364;5.448;2023-03-03T10:33:41;22.63;;;16.35;;
8978;SDS011;4524;51.364;5.448;2023-03-03T10:39:15;20.30;;;15.00;;
8978;SDS011;4524;51.364;5.448;2023-03-03T10:42:09;21.00;;;15.30;;
8978;SDS011;4524;51.364;5.448;2023-03-03T10:45:05;19.65;;;15.30;;
8978;SDS011;4524;51.364;5.448;2023-03-03T10:47:57;20.65;;;14.45;;
8978;SDS011;4524;51.364;5.448;2023-03-03T10:50:36;18.63;;;14.50;;
8978;SDS011;4524;51.364;5.448;2023-03-03T10:53:18;19.35;;;14.25;;
8978;SDS011;4524;51.364;5.448;2023-03-03T10:55:53;19.45;;;14.27;;
8978;SDS011;4524;51.364;5.448;2023-03-03T10:58:41;20.85;;;14.52;;
8978;SDS011;4524;51.364;5.448;2023-03-03T11:01:22;20.42;;;14.38;;
8978;SDS011;4524;51.364;5.448;2023-03-03T11:04:08;17.30;;;13.65;;
8978;SDS011;4524;51.364;5.448;2023-03-03T11:06:54;19.25;;;14.38;;
8978;SDS011;4524;51.364;5.448;2023-03-03T11:12:42;20.52;;;15.07;;
8978;SDS011;4524;51.364;5.448;2023-03-03T11:15:21;20.50;;;14.88;;
8978;SDS011;4524;51.364;5.448;2023-03-03T11:18:02;22.48;;;15.77;;
8978;SDS011;4524;51.364;5.448;2023-03-03T11:20:58;21.98;;;15.85;;
8978;SDS011;4524;51.364;5.448;2023-03-03T11:23:51;19.02;;;14.88;;
8978;SDS011;4524;51.364;5.448;2023-03-03T11:26:29;19.88;;;14.40;;
8978;SDS011;4524;51.364;5.448;2023-03-03T11:31:54;18.20;;;14.03;;
8978;SDS011;4524;51.364;5.448;2023-03-03T11:34:30;19.85;;;14.95;;
8978;SDS011;4524;51.364;5.448;2023-03-03T11:37:10;18.63;;;13.95;;
8978;SDS011;4524;51.364;5.448;2023-03-03T11:39:44;19.67;;;14.00;;
8978;SDS011;4524;51.364;5.448;2023-03-03T11:42:14;17.92;;;13.25;;
8978;SDS011;4524;51.364;5.448;2023-03-03T11:44:50;17.35;;;12.80;;
8978;SDS011;4524;51.364;5.448;2023-03-03T11:47:23;17.08;;;12.60;;
8978;SDS011;4524;51.364;5.448;2023-03-03T11:49:59;18.35;;;13.15;;
8978;SDS011;4524;51.364;5.448;2023-03-03T11:52:31;16.42;;;12.38;;
8978;SDS011;4524;51.364;5.448;2023-03-03T11:55:11;16.30;;;12.50;;
8978;SDS011;4524;51.364;5.448;2023-03-03T11:57:43;16.37;;;12.47;;
8978;SDS011;4524;51.364;5.448;2023-03-03T12:00:19;16.98;;;12.38;;
8978;SDS011;4524;51.364;5.448;2023-03-03T12:03:02;14.60;;;10.70;;
8978;SDS011;4524;51.364;5.448;2023-03-03T12:05:42;14.65;;;11.30;;
8978;SDS011;4524;51.364;5.448;2023-03-03T12:08:20;15.35;;;11.30;;
8978;SDS011;4524;51.364;5.448;2023-03-03T12:10:57;15.00;;;11.30;;
8978;SDS011;4524;51.364;5.448;2023-03-03T12:13:37;15.45;;;10.95;;
8978;SDS011;4524;51.364;5.448;2023-03-03T12:16:19;14.30;;;10.80;;
8978;SDS011;4524;51.364;5.448;2023-03-03T12:19:03;13.10;;;10.40;;
8978;SDS011;4524;51.364;5.448;2023-03-03T12:21:48;15.68;;;11.45;;
8978;SDS011;4524;51.364;5.448;2023-03-03T12:24:41;14.77;;;11.27;;
8978;SDS011;4524;51.364;5.448;2023-03-03T12:27:27;14.68;;;11.43;;
8978;SDS011;4524;51.364;5.448;2023-03-03T12:30:03;13.50;;;10.70;;
8978;SDS011;4524;51.364;5.448;2023-03-03T12:32:46;15.77;;;11.10;;
8978;SDS011;4524;51.364;5.448;2023-03-03T12:35:38;14.32;;;11.48;;
8978;SDS011;4524;51.364;5.448;2023-03-03T12:38:17;14.73;;;11.20;;
8978;SDS011;4524;51.364;5.448;2023-03-03T12:40:54;15.88;;;12.00;;
8978;SDS011;4524;51.364;5.448;2023-03-03T12:43:31;17.27;;;12.30;;
8978;SDS011;4524;51.364;5.448;2023-03-03T12:46:15;16.73;;;12.48;;
8978;SDS011;4524;51.364;5.448;2023-03-03T12:48:55;15.85;;;12.25;;
8978;SDS011;4524;51.364;5.448;2023-03-03T12:51:27;15.80;;;12.40;;
8978;SDS011;4524;51.364;5.448;2023-03-03T12:54:09;18.23;;;13.32;;
8978;SDS011;4524;51.364;5.448;2023-03-03T12:56:47;16.77;;;12.35;;
8978;SDS011;4524;51.364;5.448;2023-03-03T12:59:19;17.40;;;12.90;;
8978;SDS011;4524;51.364;5.448;2023-03-03T13:02:00;16.02;;;12.38;;
8978;SDS011;4524;51.364;5.448;2023-03-03T13:04:43;15.57;;;12.23;;
8978;SDS011;4524;51.364;5.448;2023-03-03T13:07:18;16.55;;;11.88;;
8978;SDS011;4524;51.364;5.448;2023-03-03T13:09:57;15.50;;;12.10;;
8978;SDS011;4524;51.364;5.448;2023-03-03T13:12:38;16.38;;;12.02;;
8978;SDS011;4524;51.364;5.448;2023-03-03T13:15:12;16.85;;;12.82;;
8978;SDS011;4524;51.364;5.448;2023-03-03T13:17:57;16.30;;;12.60;;
8978;SDS011;4524;51.364;5.448;2023-03-03T13:20:40;16.17;;;12.30;;
8978;SDS011;4524;51.364;5.448;2023-03-03T13:23:16;15.32;;;12.02;;
8978;SDS011;4524;51.364;5.448;2023-03-03T13:25:58;16.35;;;12.02;;
8978;SDS011;4524;51.364;5.448;2023-03-03T13:28:30;17.27;;;12.95;;
8978;SDS011;4524;51.364;5.448;2023-03-03T13:31:04;15.65;;;11.93;;
8978;SDS011;4524;51.364;5.448;2023-03-03T13:33:38;14.68;;;11.88;;
8978;SDS011;4524;51.364;5.448;2023-03-03T13:36:15;17.10;;;12.13;;
8978;SDS011;4524;51.364;5.448;2023-03-03T13:38:45;14.97;;;11.67;;
8978;SDS011;4524;51.364;5.448;2023-03-03T13:41:16;15.13;;;11.30;;
8978;SDS011;4524;51.364;5.448;2023-03-03T13:43:51;14.98;;;10.98;;
8978;SDS011;4524;51.364;5.448;2023-03-03T13:46:27;15.35;;;11.07;;
8978;SDS011;4524;51.364;5.448;2023-03-03T13:49:07;15.13;;;12.02;;
8978;SDS011;4524;51.364;5.448;2023-03-03T13:51:50;17.50;;;11.85;;
8978;SDS011;4524;51.364;5.448;2023-03-03T13:54:40;14.98;;;11.40;;
8978;SDS011;4524;51.364;5.448;2023-03-03T13:57:25;13.82;;;11.05;;
8978;SDS011;4524;51.364;5.448;2023-03-03T14:00:08;13.13;;;10.50;;
8978;SDS011;4524;51.364;5.448;2023-03-03T14:02:48;14.07;;;10.27;;
8978;SDS011;4524;51.364;5.448;2023-03-03T14:05:34;14.45;;;10.95;;
8978;SDS011;4524;51.364;5.448;2023-03-03T14:08:07;13.07;;;10.57;;
8978;SDS011;4524;51.364;5.448;2023-03-03T14:10:43;15.52;;;12.00;;
8978;SDS011;4524;51.364;5.448;2023-03-03T14:13:18;13.85;;;10.80;;
8978;SDS011;4524;51.364;5.448;2023-03-03T14:15:54;13.70;;;11.02;;
8978;SDS011;4524;51.364;5.448;2023-03-03T14:18:28;14.50;;;10.60;;
8978;SDS011;4524;51.364;5.448;2023-03-03T14:21:02;16.65;;;11.50;;
8978;SDS011;4524;51.364;5.448;2023-03-03T14:23:42;13.55;;;9.48;;
8978;SDS011;4524;51.364;5.448;2023-03-03T14:26:17;12.18;;;9.40;;
8978;SDS011;4524;51.364;5.448;2023-03-03T14:28:46;12.23;;;9.90;;
8978;SDS011;4524;51.364;5.448;2023-03-03T14:31:17;12.25;;;9.63;;
8978;SDS011;4524;51.364;5.448;2023-03-03T14:33:58;12.30;;;9.48;;
8978;SDS011;4524;51.364;5.448;2023-03-03T14:36:30;13.10;;;9.90;;
8978;SDS011;4524;51.364;5.448;2023-03-03T14:39:07;11.93;;;9.45;;
8978;SDS011;4524;51.364;5.448;2023-03-03T14:41:57;11.13;;;8.60;;
8978;SDS011;4524;51.364;5.448;2023-03-03T14:44:27;10.85;;;8.60;;
8978;SDS011;4524;51.364;5.448;2023-03-03T14:47:00;10.68;;;8.32;;
8978;SDS011;4524;51.364;5.448;2023-03-03T14:49:37;11.82;;;9.50;;
8978;SDS011;4524;51.364;5.448;2023-03-03T14:52:10;10.23;;;8.43;;
8978;SDS011;4524;51.364;5.448;2023-03-03T14:54:49;10.73;;;8.30;;
8978;SDS011;4524;51.364;5.448;2023-03-03T14:57:19;9.35;;;7.68;;
8978;SDS011;4524;51.364;5.448;2023-03-03T14:59:58;8.80;;;7.05;;
8978;SDS011;4524;51.364;5.448;2023-03-03T15:02:35;10.00;;;7.63;;
8978;SDS011;4524;51.364;5.448;2023-03-03T15:07:54;8.73;;;7.22;;
8978;SDS011;4524;51.364;5.448;2023-03-03T15:10:32;8.52;;;7.05;;
8978;SDS011;4524;51.364;5.448;2023-03-03T15:13:08;8.27;;;6.78;;
8978;SDS011;4524;51.364;5.448;2023-03-03T15:16:08;8.90;;;6.63;;
8978;SDS011;4524;51.364;5.448;2023-03-03T15:21:54;8.40;;;6.73;;
8978;SDS011;4524;51.364;5.448;2023-03-03T15:24:29;10.15;;;6.90;;
8978;SDS011;4524;51.364;5.448;2023-03-03T15:27:05;9.60;;;6.97;;
8978;SDS011;4524;51.364;5.448;2023-03-03T15:29:39;8.43;;;6.45;;
8978;SDS011;4524;51.364;5.448;2023-03-03T15:32:17;10.73;;;6.93;;
8978;SDS011;4524;51.364;5.448;2023-03-03T15:34:52;8.85;;;6.88;;
8978;SDS011;4524;51.364;5.448;2023-03-03T15:37:31;8.85;;;6.88;;
8978;SDS011;4524;51.364;5.448;2023-03-03T15:40:09;9.32;;;6.30;;
8978;SDS011;4524;51.364;5.448;2023-03-03T15:42:46;8.63;;;5.70;;
8978;SDS011;4524;51.364;5.448;2023-03-03T15:45:17;6.63;;;5.50;;
8978;SDS011;4524;51.364;5.448;2023-03-03T15:47:57;6.83;;;5.53;;
8978;SDS011;4524;51.364;5.448;2023-03-03T15:50:43;7.27;;;5.70;;
8978;SDS011;4524;51.364;5.448;2023-03-03T15:53:17;9.10;;;5.95;;
8978;SDS011;4524;51.364;5.448;2023-03-03T15:56:12;7.27;;;6.10;;
8978;SDS011;4524;51.364;5.448;2023-03-03T15:58:56;9.90;;;7.07;;
8978;SDS011;4524;51.364;5.448;2023-03-03T16:01:37;7.30;;;6.50;;